logo dgac
Martes 21 de Septiembre del 2021
Buscar por aerodromo o helipuerto
Ingrese nombre de aeródromo, localidad o designador OACI:

Aeródromo: Eulogio Sánchez (PUB) (SCTB)

Ubicación: Santiago, XIII Región, Chile (33º 27' 25'' S, 70º 32' 50'' W) Ver ubicación en el mapa

Pistas

Orientación Dimensión Pendiente Superficie Resistencia APCH THR RWY PAPI
01/19 966 x 30 -1,70 ASPH 5.700 Kg No
Horas de operación MON-FRI 1130-FCCV SAT/SUN/HOL 1200-FCCV
Elevación 649 m / 2129 ft
Otra Información Adm : Jorge Narbona Lemus
Uso : PUB
TEL Club Aéreo de Santiago 56-223530201/ 223530222/ 223530223 CEL 56-992995927
TEL D.G.A.C - ARO 56-223716817 / 223716818 / 224392151
email : aro.tobalaba@dgac.gob.cl

RMK / OPS fuera del horario establecido, deberán ser coordinadas y autorizadas en primera instancia por la Administración del AD y luego por la DGAC

Otra información ver AIP-Chile Volumen I AD 3.9-18.6-S y VAC
CCCM/FCCV Descargar
andera de Chile
Mapa de Eulogio Sánchez (PUB) (SCTB)

Último METAR

METAR SCTB 211200Z 15001KT CAVOK 08/04 Q1016

Último TAF

TAF SCTB 211100Z 2112/2124 VRB02KT CAVOK TX20/2118Z TN06/2112Z BECMG 2116/2118 23007KT

Últimas fotos cámaras

Imagen aerodromo Eulogio Sánchez (PUB) (SCTB) N-Este tomada el 21-09-2021 12:07:57 Imagen aerodromo Eulogio Sánchez (PUB) (SCTB) Sur tomada el 21-09-2021 12:07:55

Último NOTAM

C4164/21 NOTAMN Q)SCEZ/QLPAS/IV/BO/A/000/999/3327S07033W005 A)SCTB B)2109201150 C)2109242359 E)PAPI RWY 19 U/S DEBIDO A MAINT